createdAt,value
2019-05-01T00:01:24.052Z,46.25
2019-05-01T00:04:03.117Z,38.40
2019-05-01T00:06:42.370Z,38.53
2019-05-01T00:09:14.830Z,38.88
2019-05-01T00:11:46.405Z,39.33
2019-05-01T00:14:17.789Z,51.08
2019-05-01T00:16:49.557Z,41.08
2019-05-01T00:19:21.068Z,38.38
2019-05-01T00:21:52.474Z,46.63
2019-05-01T00:24:24.149Z,41.55
2019-05-01T00:26:55.639Z,40.45
2019-05-01T00:29:27.011Z,39.10
2019-05-01T00:31:58.356Z,45.63
2019-05-01T00:34:29.739Z,48.87
2019-05-01T00:37:01.226Z,43.33
2019-05-01T00:39:32.671Z,40.85
2019-05-01T00:42:04.205Z,39.27
2019-05-01T00:44:35.691Z,42.03
2019-05-01T00:47:07.068Z,42.53
2019-05-01T00:49:38.408Z,38.98
2019-05-01T00:52:09.773Z,43.80
2019-05-01T00:54:42.826Z,43.50
2019-05-01T00:57:19.137Z,41.90
2019-05-01T00:59:52.283Z,40.65
2019-05-01T01:02:31.281Z,47.17
2019-05-01T01:05:02.764Z,43.30
2019-05-01T01:07:34.150Z,46.68
2019-05-01T01:10:07.229Z,51.35
2019-05-01T01:12:38.579Z,51.83
2019-05-01T01:15:10.290Z,58.78
2019-05-01T01:17:42.075Z,60.15
2019-05-01T01:20:14.323Z,55.38
2019-05-01T01:22:45.892Z,46.30
2019-05-01T01:25:18.377Z,45.98
2019-05-01T01:27:49.821Z,48.92
2019-05-01T01:30:21.281Z,43.52
2019-05-01T01:32:52.726Z,40.45
2019-05-01T01:35:24.177Z,42.30
2019-05-01T01:37:55.724Z,40.90
2019-05-01T01:40:27.175Z,37.65
2019-05-01T01:43:13.726Z,43.02
2019-05-01T01:45:46.877Z,39.73
2019-05-01T01:48:18.732Z,43.08
2019-05-01T01:50:50.661Z,46.30
2019-05-01T01:53:23.451Z,44.55
2019-05-01T01:55:55.587Z,44.73
2019-05-01T01:58:27.201Z,50.80
2019-05-01T02:01:09.176Z,54.85
2019-05-01T02:03:44.173Z,54.60
2019-05-01T02:06:15.575Z,50.43
2019-05-01T02:08:56.233Z,46.58
2019-05-01T02:11:20.524Z,43.23
2019-05-01T02:13:56.645Z,43.58
2019-05-01T02:16:28.068Z,40.90
2019-05-01T02:18:59.810Z,41.35
2019-05-01T02:21:31.240Z,42.23
2019-05-01T02:24:02.610Z,41.77
2019-05-01T02:26:42.261Z,41.80
2019-05-01T02:29:15.334Z,41.05
2019-05-01T02:31:50.025Z,37.45
2019-05-01T02:34:22.623Z,39.63
2019-05-01T02:36:57.208Z,41.33
2019-05-01T02:39:30.822Z,41.20
2019-05-01T02:42:02.838Z,43.95
2019-05-01T02:44:37.286Z,42.88
2019-05-01T02:47:11.715Z,50.10
2019-05-01T02:49:52.199Z,49.27
2019-05-01T02:52:26.489Z,49.30
2019-05-01T02:55:02.170Z,45.35
2019-05-01T02:57:36.149Z,49.03
2019-05-01T03:00:09.454Z,53.73
2019-05-01T03:02:41.574Z,56.80
2019-05-01T03:05:13.032Z,59.83
2019-05-01T03:07:44.764Z,61.20
2019-05-01T03:10:16.641Z,55.25
2019-05-01T03:12:49.992Z,60.75
2019-05-01T03:15:23.831Z,59.53
2019-05-01T03:17:57.110Z,60.95
2019-05-01T03:20:33.125Z,57.25
2019-05-01T03:23:22.826Z,54.98
2019-05-01T03:25:54.743Z,53.38
2019-05-01T03:28:27.426Z,47.50
2019-05-01T03:30:58.878Z,43.80
2019-05-01T03:33:30.855Z,43.73
2019-05-01T03:36:02.288Z,44.33
2019-05-01T03:38:34.535Z,47.10
2019-05-01T03:41:06.476Z,44.03
2019-05-01T03:43:37.889Z,46.20
2019-05-01T03:46:10.594Z,43.78
2019-05-01T03:48:42.626Z,44.80
2019-05-01T03:51:14.063Z,43.42
2019-05-01T03:53:46.567Z,43.70
2019-05-01T03:56:18.794Z,43.73
2019-05-01T03:58:50.961Z,45.58
2019-05-01T04:01:40.112Z,41.33
2019-05-01T04:04:13.229Z,45.45
2019-05-01T04:06:44.888Z,43.60
2019-05-01T04:09:16.648Z,45.17
2019-05-01T04:11:49.067Z,45.05
2019-05-01T04:14:20.972Z,44.25
2019-05-01T04:16:53.993Z,42.58
2019-05-01T04:19:26.860Z,43.98
2019-05-01T04:22:00.059Z,43.13
2019-05-01T04:24:32.000Z,44.73
2019-05-01T04:27:05.231Z,43.95
2019-05-01T04:29:38.430Z,45.28
2019-05-01T04:32:14.702Z,44.55
2019-05-01T04:34:48.094Z,46.90
2019-05-01T04:37:21.744Z,45.78
2019-05-01T04:39:53.087Z,44.35
2019-05-01T04:42:24.580Z,43.98
2019-05-01T04:44:56.252Z,41.88
2019-05-01T04:47:27.812Z,43.20
2019-05-01T04:50:00.316Z,40.65
2019-05-01T04:52:31.846Z,42.30
2019-05-01T04:55:04.536Z,40.55
2019-05-01T04:57:36.280Z,42.50
2019-05-01T05:00:08.346Z,42.75
2019-05-01T05:02:44.242Z,42.25
2019-05-01T05:05:15.798Z,41.60
2019-05-01T05:07:47.398Z,43.05
2019-05-01T05:10:19.002Z,44.00
2019-05-01T05:12:52.037Z,43.92
2019-05-01T05:15:34.371Z,43.50
2019-05-01T05:18:06.721Z,43.13
2019-05-01T05:20:38.319Z,42.20
2019-05-01T05:23:10.046Z,42.08
2019-05-01T05:25:42.760Z,42.98
2019-05-01T05:28:14.770Z,42.40
2019-05-01T05:30:48.088Z,43.35
2019-05-01T05:33:20.934Z,40.45
2019-05-01T05:35:54.166Z,41.75
2019-05-01T05:38:29.745Z,43.05
2019-05-01T05:41:03.177Z,41.40
2019-05-01T05:46:05.660Z,38.78
2019-05-01T05:48:38.482Z,41.53
2019-05-01T05:51:13.198Z,39.92
2019-05-01T05:53:48.424Z,41.08
2019-05-01T05:56:21.990Z,39.45
2019-05-01T05:59:03.522Z,40.12
2019-05-01T06:01:39.214Z,39.78
2019-05-01T06:04:26.388Z,40.38
2019-05-01T06:07:01.095Z,40.12
2019-05-01T06:09:37.107Z,39.13
2019-05-01T06:12:21.699Z,38.73
2019-05-01T06:15:02.402Z,36.98
2019-05-01T06:17:42.092Z,36.63
2019-05-01T06:20:26.021Z,36.15
2019-05-01T06:23:06.098Z,34.65
2019-05-01T06:25:40.750Z,32.38
2019-05-01T06:28:12.897Z,32.50
2019-05-01T06:30:47.169Z,33.63
2019-05-01T06:33:17.542Z,33.63
2019-05-01T06:35:48.942Z,32.30
2019-05-01T06:38:20.849Z,32.15
2019-05-01T06:40:58.133Z,30.92
2019-05-01T06:43:46.450Z,31.23
2019-05-01T06:46:22.173Z,28.92
2019-05-01T06:48:59.021Z,30.23
2019-05-01T06:51:35.880Z,28.47
2019-05-01T06:54:11.489Z,30.68
2019-05-01T06:56:44.843Z,30.32
2019-05-01T06:59:18.078Z,27.20
2019-05-01T07:01:53.207Z,28.38
2019-05-01T07:04:24.655Z,28.60
2019-05-01T07:06:56.422Z,28.83
2019-05-01T07:09:28.503Z,26.97
2019-05-01T07:12:01.246Z,28.67
2019-05-01T07:14:32.761Z,28.80
2019-05-01T07:17:04.200Z,27.48
2019-05-01T07:19:46.355Z,26.45
2019-05-01T07:22:17.952Z,27.45
2019-05-01T07:24:49.550Z,28.07
2019-05-01T07:27:23.907Z,27.30
2019-05-01T07:29:55.945Z,26.40
2019-05-01T07:32:28.023Z,26.57
2019-05-01T07:35:02.090Z,26.68
2019-05-01T07:37:33.834Z,25.12
2019-05-01T07:40:09.391Z,23.98
2019-05-01T07:42:43.735Z,24.92
2019-05-01T07:45:19.606Z,25.92
2019-05-01T07:47:53.474Z,25.17
2019-05-01T07:50:31.633Z,25.02
2019-05-01T07:52:58.382Z,25.80
2019-05-01T07:55:35.857Z,25.35
2019-05-01T07:58:10.456Z,26.07
2019-05-01T08:01:04.277Z,25.10
2019-05-01T08:03:37.926Z,26.37
2019-05-01T08:06:08.997Z,25.82
2019-05-01T08:08:40.967Z,26.10
2019-05-01T08:11:12.413Z,25.77
2019-05-01T08:13:43.862Z,24.85
2019-05-01T08:16:15.318Z,23.95
2019-05-01T08:18:54.410Z,24.12
2019-05-01T08:21:27.593Z,24.12
2019-05-01T08:23:58.991Z,23.25
2019-05-01T08:26:30.335Z,22.60
2019-05-01T08:29:06.825Z,22.52
2019-05-01T08:31:41.383Z,21.68
2019-05-01T08:34:32.468Z,21.37
2019-05-01T08:37:06.457Z,21.37
2019-05-01T08:39:39.814Z,20.57
2019-05-01T08:42:09.969Z,21.80
2019-05-01T08:44:43.058Z,22.05
2019-05-01T08:47:28.025Z,21.93
2019-05-01T08:50:01.023Z,21.62
2019-05-01T08:52:32.656Z,22.27
2019-05-01T08:55:09.296Z,22.13
2019-05-01T08:57:39.748Z,19.00
2019-05-01T09:00:11.506Z,19.25
2019-05-01T09:02:43.739Z,19.80
2019-05-01T09:07:51.199Z,19.30
2019-05-01T09:10:23.257Z,18.07
2019-05-01T09:12:54.827Z,18.70
2019-05-01T09:15:26.175Z,18.90
2019-05-01T09:17:58.708Z,17.30
2019-05-01T09:20:31.449Z,17.20
2019-05-01T09:23:02.694Z,15.50
2019-05-01T09:25:41.935Z,17.62
2019-05-01T09:28:18.004Z,17.75
2019-05-01T09:31:01.618Z,17.70
2019-05-01T09:33:30.820Z,17.90
2019-05-01T09:36:03.580Z,17.02
2019-05-01T09:38:34.982Z,17.10
2019-05-01T09:41:06.475Z,16.95
2019-05-01T09:43:37.919Z,15.98
2019-05-01T09:46:09.579Z,16.25
2019-05-01T09:48:41.039Z,17.15
2019-05-01T09:51:19.790Z,17.73
2019-05-01T09:54:09.889Z,18.75
2019-05-01T09:56:42.724Z,17.55
2019-05-01T09:59:17.360Z,18.32
2019-05-01T10:01:47.746Z,15.88
2019-05-01T10:04:19.681Z,16.87
2019-05-01T10:06:52.390Z,15.50
2019-05-01T10:09:26.613Z,16.37
2019-05-01T10:11:57.286Z,17.00
2019-05-01T10:14:31.732Z,15.00
2019-05-01T10:17:01.931Z,14.05
2019-05-01T10:19:33.382Z,12.25
2019-05-01T10:22:04.758Z,11.38
2019-05-01T10:24:37.587Z,11.57
2019-05-01T10:27:11.117Z,11.90
2019-05-01T10:29:50.147Z,10.68
2019-05-01T10:32:23.271Z,9.53
2019-05-01T10:34:56.906Z,9.23
2019-05-01T10:37:33.162Z,8.35
2019-05-01T10:40:01.182Z,8.73
2019-05-01T10:42:32.626Z,8.35
2019-05-01T10:45:06.512Z,8.17
2019-05-01T10:47:38.071Z,7.78
2019-05-01T10:50:09.504Z,8.20
2019-05-01T10:52:40.797Z,7.28
2019-05-01T10:55:12.448Z,7.40
2019-05-01T10:57:43.779Z,6.90
2019-05-01T11:00:15.421Z,7.58
2019-05-01T11:02:48.646Z,7.08
2019-05-01T11:05:20.033Z,7.78
2019-05-01T11:07:51.389Z,8.95
2019-05-01T11:10:22.679Z,10.32
2019-05-01T11:12:54.345Z,11.93
2019-05-01T11:15:26.217Z,12.30
2019-05-01T11:17:57.875Z,12.58
2019-05-01T11:20:29.620Z,9.48
2019-05-01T11:23:01.186Z,10.40
2019-05-01T11:25:33.238Z,10.93
2019-05-01T11:28:05.250Z,12.95
2019-05-01T11:30:36.970Z,11.38
2019-05-01T11:33:10.305Z,11.10
2019-05-01T11:35:46.232Z,9.10
2019-05-01T11:38:19.348Z,8.80
2019-05-01T11:40:52.622Z,8.20
2019-05-01T11:43:24.159Z,8.35
2019-05-01T11:45:55.742Z,8.28
2019-05-01T11:48:30.111Z,8.40
2019-05-01T11:53:31.231Z,9.13
2019-05-01T11:56:02.763Z,8.85
2019-05-01T11:58:34.318Z,7.80
2019-05-01T12:01:06.663Z,6.90
2019-05-01T12:03:38.246Z,4.43
2019-05-01T12:06:22.288Z,4.72
2019-05-01T12:11:16.188Z,4.42
2019-05-01T12:13:47.721Z,4.30
2019-05-01T12:16:20.765Z,4.15
2019-05-01T12:18:52.373Z,3.10
2019-05-01T12:21:23.995Z,3.47
2019-05-01T12:23:55.559Z,3.02
2019-05-01T12:26:27.149Z,3.90
2019-05-01T12:28:58.824Z,3.30
2019-05-01T12:31:31.335Z,3.90
2019-05-01T12:34:03.032Z,2.98
2019-05-01T12:36:36.340Z,3.00
2019-05-01T12:39:10.646Z,3.00
2019-05-01T12:41:51.013Z,2.87
2019-05-01T12:44:22.538Z,3.00
2019-05-01T12:47:01.789Z,2.50
2019-05-01T12:49:33.330Z,2.87
2019-05-01T12:52:10.575Z,2.52
2019-05-01T12:54:41.311Z,2.30
2019-05-01T12:57:13.406Z,2.40
2019-05-01T12:59:44.983Z,2.45
2019-05-01T13:02:16.523Z,2.50
2019-05-01T13:04:48.064Z,2.45
2019-05-01T13:07:19.833Z,2.30
2019-05-01T13:09:51.518Z,1.90
2019-05-01T13:12:24.232Z,2.72
2019-05-01T13:14:55.806Z,2.30
2019-05-01T13:17:27.380Z,2.50
2019-05-01T13:19:58.923Z,2.75
2019-05-01T13:22:30.468Z,2.45
2019-05-01T13:25:02.048Z,2.58
2019-05-01T13:27:35.152Z,2.75
2019-05-01T13:30:19.829Z,1.82
2019-05-01T13:32:52.922Z,3.67
2019-05-01T13:35:24.438Z,2.80
2019-05-01T13:37:55.977Z,2.30
2019-05-01T13:41:10.969Z,19.50
2019-05-01T13:43:42.699Z,5.20
2019-05-01T13:46:14.259Z,2.75
2019-05-01T13:48:45.949Z,2.67
2019-05-01T13:51:17.473Z,2.67
2019-05-01T13:53:49.016Z,2.05
2019-05-01T13:56:21.069Z,2.60
2019-05-01T13:58:52.676Z,2.60
2019-05-01T14:01:24.695Z,2.40
2019-05-01T14:03:56.294Z,1.98
2019-05-01T14:06:27.827Z,2.35
2019-05-01T14:08:59.379Z,2.22
2019-05-01T14:11:30.928Z,2.12
2019-05-01T14:14:02.487Z,1.52
2019-05-01T14:16:34.038Z,1.90
2019-05-01T14:19:05.593Z,1.72
2019-05-01T14:21:38.719Z,1.85
2019-05-01T14:24:14.494Z,1.40
2019-05-01T14:26:45.993Z,1.45
2019-05-01T14:29:17.668Z,2.22
2019-05-01T14:31:49.216Z,1.60
2019-05-01T14:34:20.749Z,1.32
2019-05-01T14:36:52.288Z,2.00
2019-05-01T14:39:23.850Z,2.52
2019-05-01T14:41:55.562Z,3.00
2019-05-01T14:44:36.610Z,3.50
2019-05-01T14:47:00.455Z,2.42
2019-05-01T14:49:32.009Z,2.40
2019-05-01T14:52:03.605Z,1.65
2019-05-01T14:54:35.225Z,1.98
2019-05-01T14:57:06.787Z,2.70
2019-05-01T14:59:39.234Z,2.95
2019-05-01T15:02:11.274Z,2.85
2019-05-01T15:04:42.855Z,2.05
2019-05-01T15:07:14.444Z,2.25
2019-05-01T15:09:45.963Z,2.47
2019-05-01T15:12:17.519Z,3.50
2019-05-01T15:14:53.598Z,2.77
2019-05-01T15:17:29.449Z,3.83
2019-05-01T15:20:03.488Z,4.55
2019-05-01T15:22:35.689Z,3.12
2019-05-01T15:25:07.587Z,2.90
2019-05-01T15:27:39.173Z,2.50
2019-05-01T15:30:12.461Z,2.17
2019-05-01T15:32:43.934Z,2.37
2019-05-01T15:35:15.427Z,1.90
2019-05-01T15:37:56.500Z,3.90
2019-05-01T15:42:54.272Z,3.50
2019-05-01T15:45:25.848Z,3.15
2019-05-01T15:47:57.433Z,3.10
2019-05-01T15:50:28.966Z,6.92
2019-05-01T15:53:00.512Z,8.03
2019-05-01T15:55:32.135Z,5.97
2019-05-01T15:58:03.721Z,6.75
2019-05-01T16:00:35.384Z,6.35
2019-05-01T16:03:06.920Z,4.12
2019-05-01T16:05:38.518Z,2.72
2019-05-01T16:08:10.173Z,2.30
2019-05-01T16:10:43.302Z,2.45
2019-05-01T16:13:14.909Z,3.00
2019-05-01T16:15:46.491Z,3.08
2019-05-01T16:18:18.056Z,3.12
2019-05-01T16:20:49.726Z,2.98
2019-05-01T16:26:12.011Z,2.85
2019-05-01T16:28:43.547Z,3.02
2019-05-01T16:31:15.525Z,3.77
2019-05-01T16:33:47.356Z,4.80
2019-05-01T16:36:20.398Z,4.50
2019-05-01T16:39:02.751Z,4.85
2019-05-01T16:41:36.154Z,5.62
2019-05-01T16:44:08.120Z,4.42
2019-05-01T16:46:39.969Z,3.50
2019-05-01T16:49:11.845Z,5.60
2019-05-01T16:51:43.591Z,5.62
2019-05-01T16:54:15.652Z,5.70
2019-05-01T16:56:48.196Z,4.37
2019-05-01T16:59:20.011Z,3.20
2019-05-01T17:01:58.064Z,3.17
2019-05-01T17:04:32.728Z,3.58
2019-05-01T17:07:28.715Z,3.70
2019-05-01T17:10:08.307Z,2.65
2019-05-01T17:12:47.981Z,3.20
2019-05-01T17:15:21.453Z,3.37
2019-05-01T17:17:52.986Z,3.10
2019-05-01T17:20:26.278Z,2.47
2019-05-01T17:22:57.860Z,2.20
2019-05-01T17:25:29.683Z,15.50
2019-05-01T17:28:08.225Z,4.08
2019-05-01T17:30:46.578Z,2.50
2019-05-01T17:33:20.730Z,3.40
2019-05-01T17:35:51.784Z,2.80
2019-05-01T17:38:23.558Z,2.83
2019-05-01T17:40:55.137Z,4.00
2019-05-01T17:43:26.701Z,3.92
2019-05-01T17:46:01.014Z,3.58
2019-05-01T17:48:33.656Z,5.95
2019-05-01T17:51:06.241Z,6.92
2019-05-01T17:53:37.863Z,4.75
2019-05-01T17:56:10.048Z,2.75
2019-05-01T17:58:42.526Z,2.20
2019-05-01T18:01:33.159Z,2.77
2019-05-01T18:04:18.479Z,1.72
2019-05-01T18:06:51.373Z,2.10
2019-05-01T18:09:22.847Z,2.10
2019-05-01T18:11:54.244Z,4.33
2019-05-01T18:14:25.559Z,1.57
2019-05-01T18:16:56.914Z,1.92
2019-05-01T18:19:28.389Z,1.67
2019-05-01T18:22:01.347Z,2.27
2019-05-01T18:24:43.228Z,1.77
2019-05-01T18:27:20.374Z,1.72
2019-05-01T18:29:53.487Z,2.20
2019-05-01T18:32:36.474Z,2.50
2019-05-01T18:35:14.189Z,2.35
2019-05-01T18:37:49.940Z,2.60
2019-05-01T18:40:34.845Z,2.45
2019-05-01T18:43:06.837Z,1.85
2019-05-01T18:45:53.095Z,2.00
2019-05-01T18:48:24.938Z,2.20
2019-05-01T18:50:56.558Z,1.45
2019-05-01T18:53:28.102Z,1.47
2019-05-01T18:56:01.413Z,1.75
2019-05-01T18:58:32.500Z,1.65
2019-05-01T19:01:08.738Z,1.45
2019-05-01T19:03:37.209Z,1.22
2019-05-01T19:06:09.873Z,1.20
2019-05-01T19:08:41.195Z,1.72
2019-05-01T19:11:13.409Z,1.30
2019-05-01T19:13:44.855Z,1.75
2019-05-01T19:16:17.578Z,1.42
2019-05-01T19:18:51.729Z,2.10
2019-05-01T19:21:24.567Z,1.42
2019-05-01T19:24:00.432Z,1.50
2019-05-01T19:26:29.157Z,1.30
2019-05-01T19:29:03.751Z,1.37
2019-05-01T19:31:35.004Z,1.17
2019-05-01T19:34:06.467Z,1.30
2019-05-01T19:36:40.388Z,1.30
2019-05-01T19:39:11.707Z,1.40
2019-05-01T19:41:49.117Z,1.30
2019-05-01T19:44:18.956Z,1.05
2019-05-01T19:46:50.056Z,1.40
2019-05-01T19:49:24.631Z,1.92
2019-05-01T19:51:55.531Z,1.35
2019-05-01T19:54:29.809Z,1.77
2019-05-01T19:57:00.581Z,2.20
2019-05-01T19:59:33.067Z,2.75
2019-05-01T20:02:05.932Z,2.62
2019-05-01T20:04:37.294Z,2.80
2019-05-01T20:07:10.687Z,2.60
2019-05-01T20:09:41.654Z,2.42
2019-05-01T20:12:12.972Z,2.30
2019-05-01T20:14:49.056Z,2.00
2019-05-01T20:17:20.442Z,2.17
2019-05-01T20:19:51.947Z,2.40
2019-05-01T20:22:23.189Z,2.08
2019-05-01T20:24:54.480Z,1.70
2019-05-01T20:27:27.644Z,2.00
2019-05-01T20:29:58.742Z,2.20
2019-05-01T20:32:30.144Z,1.77
2019-05-01T20:35:01.484Z,2.05
2019-05-01T20:37:33.790Z,2.05
2019-05-01T20:40:11.356Z,1.62
2019-05-01T20:42:40.959Z,1.77
2019-05-01T20:45:17.343Z,1.70
2019-05-01T20:50:17.903Z,1.47
2019-05-01T20:52:49.304Z,1.60
2019-05-01T20:55:20.731Z,1.95
2019-05-01T20:57:52.079Z,1.80
2019-05-01T21:00:25.560Z,1.70
2019-05-01T21:02:56.824Z,2.37
2019-05-01T21:05:29.655Z,2.20
2019-05-01T21:08:02.575Z,2.08
2019-05-01T21:10:36.081Z,2.12
2019-05-01T21:15:39.016Z,2.00
2019-05-01T21:18:10.406Z,1.80
2019-05-01T21:20:43.474Z,1.92
2019-05-01T21:23:14.720Z,1.50
2019-05-01T21:25:46.024Z,1.50
2019-05-01T21:28:17.439Z,1.42
2019-05-01T21:30:48.825Z,1.60
2019-05-01T21:33:20.239Z,1.35
2019-05-01T21:35:53.357Z,1.45
2019-05-01T21:38:24.707Z,1.17
2019-05-01T21:40:56.002Z,1.67
2019-05-01T21:43:32.499Z,1.12
2019-05-01T21:46:01.131Z,1.57
2019-05-01T21:48:33.436Z,1.40
2019-05-01T21:51:07.511Z,1.10
2019-05-01T21:53:42.677Z,1.22
2019-05-01T21:56:12.170Z,1.27
2019-05-01T21:58:45.249Z,1.07
2019-05-01T22:01:16.645Z,1.30
2019-05-01T22:03:48.111Z,1.10
2019-05-01T22:06:20.819Z,1.20
2019-05-01T22:08:52.075Z,1.40
2019-05-01T22:11:23.474Z,2.60
2019-05-01T22:13:55.189Z,1.70
2019-05-01T22:16:29.418Z,1.55
2019-05-01T22:19:02.274Z,1.65
2019-05-01T22:21:35.260Z,1.70
2019-05-01T22:24:26.182Z,2.10
2019-05-01T22:27:05.246Z,2.20
2019-05-01T22:29:38.229Z,1.90
2019-05-01T22:32:14.049Z,2.12
2019-05-01T22:34:50.047Z,1.82
2019-05-01T22:37:21.275Z,1.82
2019-05-01T22:39:56.938Z,1.90
2019-05-01T22:42:28.168Z,2.17
2019-05-01T22:44:59.430Z,2.50
2019-05-01T22:47:30.864Z,2.27
2019-05-01T22:50:02.233Z,2.45
2019-05-01T22:52:33.847Z,1.90
2019-05-01T22:55:06.645Z,2.25
2019-05-01T22:57:38.190Z,1.90
2019-05-01T23:00:14.017Z,1.85
2019-05-01T23:02:45.927Z,2.08
2019-05-01T23:05:17.418Z,2.12
2019-05-01T23:07:48.684Z,2.22
2019-05-01T23:10:20.953Z,2.80
2019-05-01T23:12:52.679Z,2.00
2019-05-01T23:15:25.722Z,2.50
2019-05-01T23:17:58.135Z,2.70
2019-05-01T23:20:29.843Z,3.05
2019-05-01T23:23:01.259Z,3.10
2019-05-01T23:25:36.668Z,3.02
2019-05-01T23:28:06.165Z,2.80
2019-05-01T23:30:37.562Z,2.65
2019-05-01T23:33:08.940Z,2.60
2019-05-01T23:35:40.706Z,2.70
2019-05-01T23:38:12.363Z,2.50
2019-05-01T23:40:46.141Z,2.42
2019-05-01T23:43:17.688Z,2.50
2019-05-01T23:45:48.943Z,2.37
2019-05-01T23:48:20.445Z,2.30
2019-05-01T23:50:51.789Z,2.10
2019-05-01T23:53:23.008Z,2.27
2019-05-01T23:55:54.718Z,2.52
2019-05-01T23:58:27.279Z,2.33
